sensor_id;sensor_type;location;lat;lon;timestamp;temperature;humidity
26743;DHT22;14341;51.256;22.478;2023-01-13T00:01:46;2.10;99.90
26743;DHT22;14341;51.256;22.478;2023-01-13T00:04:49;2.10;99.90
26743;DHT22;14341;51.256;22.478;2023-01-13T00:07:52;2.10;99.90
26743;DHT22;14341;51.256;22.478;2023-01-13T00:10:56;2.00;99.90
26743;DHT22;14341;51.256;22.478;2023-01-13T00:14:01;2.00;99.90
26743;DHT22;14341;51.256;22.478;2023-01-13T00:17:04;2.00;99.90
26743;DHT22;14341;51.256;22.478;2023-01-13T00:20:09;2.00;99.90
26743;DHT22;14341;51.256;22.478;2023-01-13T00:23:13;1.80;99.90
26743;DHT22;14341;51.256;22.478;2023-01-13T00:26:18;2.00;99.90
26743;DHT22;14341;51.256;22.478;2023-01-13T00:29:24;1.90;99.90
26743;DHT22;14341;51.256;22.478;2023-01-13T00:32:27;2.00;99.90
26743;DHT22;14341;51.256;22.478;2023-01-13T00:35:31;2.00;99.90
26743;DHT22;14341;51.256;22.478;2023-01-13T00:38:35;2.10;99.90
26743;DHT22;14341;51.256;22.478;2023-01-13T00:41:38;2.10;99.90
26743;DHT22;14341;51.256;22.478;2023-01-13T00:45:00;2.00;99.90
26743;DHT22;14341;51.256;22.478;2023-01-13T00:48:04;1.90;99.90
26743;DHT22;14341;51.256;22.478;2023-01-13T00:51:10;1.90;99.90
26743;DHT22;14341;51.256;22.478;2023-01-13T00:54:15;1.90;99.90
26743;DHT22;14341;51.256;22.478;2023-01-13T00:57:19;1.90;99.90
26743;DHT22;14341;51.256;22.478;2023-01-13T01:00:24;1.90;99.90
26743;DHT22;14341;51.256;22.478;2023-01-13T01:03:27;1.90;99.90
26743;DHT22;14341;51.256;22.478;2023-01-13T01:06:31;2.10;99.90
26743;DHT22;14341;51.256;22.478;2023-01-13T01:09:34;1.80;99.90
26743;DHT22;14341;51.256;22.478;2023-01-13T01:12:40;1.80;99.90
26743;DHT22;14341;51.256;22.478;2023-01-13T01:15:45;1.80;99.90
26743;DHT22;14341;51.256;22.478;2023-01-13T01:18:49;1.70;99.90
26743;DHT22;14341;51.256;22.478;2023-01-13T01:21:53;1.70;99.90
26743;DHT22;14341;51.256;22.478;2023-01-13T01:24:56;1.70;99.90
26743;DHT22;14341;51.256;22.478;2023-01-13T01:28:00;1.80;99.90
26743;DHT22;14341;51.256;22.478;2023-01-13T01:31:11;1.70;99.90
26743;DHT22;14341;51.256;22.478;2023-01-13T01:34:15;1.70;99.90
26743;DHT22;14341;51.256;22.478;2023-01-13T01:37:18;1.60;99.90
26743;DHT22;14341;51.256;22.478;2023-01-13T01:40:21;1.80;99.90
26743;DHT22;14341;51.256;22.478;2023-01-13T01:43:44;1.70;99.90
26743;DHT22;14341;51.256;22.478;2023-01-13T01:47:13;1.70;99.90
26743;DHT22;14341;51.256;22.478;2023-01-13T01:50:17;1.70;99.90
26743;DHT22;14341;51.256;22.478;2023-01-13T01:53:23;1.70;99.90
26743;DHT22;14341;51.256;22.478;2023-01-13T01:56:27;1.70;99.90
26743;DHT22;14341;51.256;22.478;2023-01-13T01:59:31;1.70;99.90
26743;DHT22;14341;51.256;22.478;2023-01-13T02:02:43;1.70;99.90
26743;DHT22;14341;51.256;22.478;2023-01-13T02:05:48;1.80;99.90
26743;DHT22;14341;51.256;22.478;2023-01-13T02:08:52;1.70;99.90
26743;DHT22;14341;51.256;22.478;2023-01-13T02:11:56;1.80;99.90
26743;DHT22;14341;51.256;22.478;2023-01-13T02:15:20;1.80;99.90
26743;DHT22;14341;51.256;22.478;2023-01-13T02:18:44;1.80;99.90
26743;DHT22;14341;51.256;22.478;2023-01-13T02:22:22;1.90;99.90
26743;DHT22;14341;51.256;22.478;2023-01-13T02:25:54;2.20;99.90
26743;DHT22;14341;51.256;22.478;2023-01-13T02:29:11;2.00;99.90
26743;DHT22;14341;51.256;22.478;2023-01-13T02:32:39;2.10;99.90
26743;DHT22;14341;51.256;22.478;2023-01-13T02:35:50;2.10;99.90
26743;DHT22;14341;51.256;22.478;2023-01-13T02:39:02;2.10;99.90
26743;DHT22;14341;51.256;22.478;2023-01-13T02:42:09;2.30;99.90
26743;DHT22;14341;51.256;22.478;2023-01-13T02:45:37;2.20;99.90
26743;DHT22;14341;51.256;22.478;2023-01-13T02:48:44;2.20;99.90
26743;DHT22;14341;51.256;22.478;2023-01-13T02:51:50;2.30;99.90
26743;DHT22;14341;51.256;22.478;2023-01-13T02:54:57;2.20;99.90
26743;DHT22;14341;51.256;22.478;2023-01-13T02:58:05;2.30;99.90
26743;DHT22;14341;51.256;22.478;2023-01-13T03:01:10;2.30;99.90
26743;DHT22;14341;51.256;22.478;2023-01-13T03:08:22;2.30;99.90
26743;DHT22;14341;51.256;22.478;2023-01-13T03:12:13;2.00;99.90
26743;DHT22;14341;51.256;22.478;2023-01-13T03:15:45;2.30;99.90
26743;DHT22;14341;51.256;22.478;2023-01-13T03:18:54;2.30;99.90
26743;DHT22;14341;51.256;22.478;2023-01-13T03:22:13;2.60;99.90
26743;DHT22;14341;51.256;22.478;2023-01-13T03:25:23;2.20;99.90
26743;DHT22;14341;51.256;22.478;2023-01-13T03:28:32;2.30;99.90
26743;DHT22;14341;51.256;22.478;2023-01-13T03:31:43;2.50;99.90
26743;DHT22;14341;51.256;22.478;2023-01-13T03:34:50;2.70;99.90
26743;DHT22;14341;51.256;22.478;2023-01-13T03:37:58;2.60;99.90
26743;DHT22;14341;51.256;22.478;2023-01-13T03:41:07;2.60;99.90
26743;DHT22;14341;51.256;22.478;2023-01-13T03:44:15;2.60;99.90
26743;DHT22;14341;51.256;22.478;2023-01-13T03:47:31;2.50;99.90
26743;DHT22;14341;51.256;22.478;2023-01-13T03:50:38;2.50;99.90
26743;DHT22;14341;51.256;22.478;2023-01-13T03:53:47;2.50;99.90
26743;DHT22;14341;51.256;22.478;2023-01-13T03:56:57;2.40;99.90
26743;DHT22;14341;51.256;22.478;2023-01-13T04:00:03;2.60;99.90
26743;DHT22;14341;51.256;22.478;2023-01-13T04:03:17;2.60;99.90
26743;DHT22;14341;51.256;22.478;2023-01-13T04:06:27;2.50;99.90
26743;DHT22;14341;51.256;22.478;2023-01-13T04:09:39;2.60;99.90
26743;DHT22;14341;51.256;22.478;2023-01-13T04:12:47;2.70;99.90
26743;DHT22;14341;51.256;22.478;2023-01-13T04:16:07;2.80;99.90
26743;DHT22;14341;51.256;22.478;2023-01-13T04:19:11;2.80;99.90
26743;DHT22;14341;51.256;22.478;2023-01-13T04:22:14;2.80;99.90
26743;DHT22;14341;51.256;22.478;2023-01-13T04:25:18;2.90;99.90
26743;DHT22;14341;51.256;22.478;2023-01-13T04:28:23;2.90;99.90
26743;DHT22;14341;51.256;22.478;2023-01-13T04:31:27;2.80;99.90
26743;DHT22;14341;51.256;22.478;2023-01-13T04:34:31;3.00;99.90
26743;DHT22;14341;51.256;22.478;2023-01-13T04:37:34;3.10;99.90
26743;DHT22;14341;51.256;22.478;2023-01-13T04:40:39;3.10;99.90
26743;DHT22;14341;51.256;22.478;2023-01-13T04:43:43;3.20;99.90
26743;DHT22;14341;51.256;22.478;2023-01-13T04:46:47;3.20;99.90
26743;DHT22;14341;51.256;22.478;2023-01-13T04:49:50;3.20;99.90
26743;DHT22;14341;51.256;22.478;2023-01-13T04:52:54;3.30;99.90
26743;DHT22;14341;51.256;22.478;2023-01-13T04:55:57;3.30;99.90
26743;DHT22;14341;51.256;22.478;2023-01-13T04:59:02;3.30;99.90
26743;DHT22;14341;51.256;22.478;2023-01-13T05:02:05;3.40;99.90
26743;DHT22;14341;51.256;22.478;2023-01-13T05:05:10;3.40;99.90
26743;DHT22;14341;51.256;22.478;2023-01-13T05:08:14;3.40;99.90
26743;DHT22;14341;51.256;22.478;2023-01-13T05:11:17;3.40;99.90
26743;DHT22;14341;51.256;22.478;2023-01-13T05:14:39;3.50;99.90
26743;DHT22;14341;51.256;22.478;2023-01-13T05:18:00;3.50;99.90
26743;DHT22;14341;51.256;22.478;2023-01-13T05:21:04;3.50;99.90
26743;DHT22;14341;51.256;22.478;2023-01-13T05:24:27;3.60;99.90
26743;DHT22;14341;51.256;22.478;2023-01-13T05:27:48;3.60;99.90
26743;DHT22;14341;51.256;22.478;2023-01-13T05:30:56;3.60;99.90
26743;DHT22;14341;51.256;22.478;2023-01-13T05:33:59;3.60;99.90
26743;DHT22;14341;51.256;22.478;2023-01-13T05:37:02;3.70;99.90
26743;DHT22;14341;51.256;22.478;2023-01-13T05:40:07;3.70;99.90
26743;DHT22;14341;51.256;22.478;2023-01-13T05:43:28;3.70;99.90
26743;DHT22;14341;51.256;22.478;2023-01-13T05:46:35;3.70;99.90
26743;DHT22;14341;51.256;22.478;2023-01-13T05:49:38;3.70;99.90
26743;DHT22;14341;51.256;22.478;2023-01-13T05:52:43;3.70;99.90
26743;DHT22;14341;51.256;22.478;2023-01-13T05:55:47;3.70;99.90
26743;DHT22;14341;51.256;22.478;2023-01-13T05:58:50;3.80;99.90
26743;DHT22;14341;51.256;22.478;2023-01-13T06:01:55;3.80;99.90
26743;DHT22;14341;51.256;22.478;2023-01-13T06:04:58;3.80;99.90
26743;DHT22;14341;51.256;22.478;2023-01-13T06:08:03;3.80;99.90
26743;DHT22;14341;51.256;22.478;2023-01-13T06:11:07;3.80;99.90
26743;DHT22;14341;51.256;22.478;2023-01-13T06:14:10;3.80;99.90
26743;DHT22;14341;51.256;22.478;2023-01-13T06:17:15;3.90;99.90
26743;DHT22;14341;51.256;22.478;2023-01-13T06:20:19;3.90;99.90
26743;DHT22;14341;51.256;22.478;2023-01-13T06:23:23;3.90;99.90
26743;DHT22;14341;51.256;22.478;2023-01-13T06:26:28;4.00;99.90
26743;DHT22;14341;51.256;22.478;2023-01-13T06:29:34;4.00;99.90
26743;DHT22;14341;51.256;22.478;2023-01-13T06:32:40;4.00;99.90
26743;DHT22;14341;51.256;22.478;2023-01-13T06:35:48;4.00;99.90
26743;DHT22;14341;51.256;22.478;2023-01-13T06:38:56;4.00;99.90
26743;DHT22;14341;51.256;22.478;2023-01-13T06:42:02;4.00;99.90
26743;DHT22;14341;51.256;22.478;2023-01-13T06:45:24;4.00;99.90
26743;DHT22;14341;51.256;22.478;2023-01-13T06:48:31;4.10;99.90
26743;DHT22;14341;51.256;22.478;2023-01-13T06:51:36;4.10;99.90
26743;DHT22;14341;51.256;22.478;2023-01-13T06:54:39;4.10;99.90
26743;DHT22;14341;51.256;22.478;2023-01-13T06:57:49;4.20;99.90
26743;DHT22;14341;51.256;22.478;2023-01-13T07:00:53;4.20;99.90
26743;DHT22;14341;51.256;22.478;2023-01-13T07:04:02;4.30;99.90
26743;DHT22;14341;51.256;22.478;2023-01-13T07:07:06;4.30;99.90
26743;DHT22;14341;51.256;22.478;2023-01-13T07:10:11;4.30;99.90
26743;DHT22;14341;51.256;22.478;2023-01-13T07:13:15;4.30;99.90
26743;DHT22;14341;51.256;22.478;2023-01-13T07:16:36;4.40;99.90
26743;DHT22;14341;51.256;22.478;2023-01-13T07:19:40;4.40;99.90
26743;DHT22;14341;51.256;22.478;2023-01-13T07:22:44;4.40;99.90
26743;DHT22;14341;51.256;22.478;2023-01-13T07:25:47;4.50;99.90
26743;DHT22;14341;51.256;22.478;2023-01-13T07:28:51;4.60;99.90
26743;DHT22;14341;51.256;22.478;2023-01-13T07:31:54;4.60;99.90
26743;DHT22;14341;51.256;22.478;2023-01-13T07:34:59;4.60;99.90
26743;DHT22;14341;51.256;22.478;2023-01-13T07:38:06;4.60;99.90
26743;DHT22;14341;51.256;22.478;2023-01-13T07:41:11;4.60;99.90
26743;DHT22;14341;51.256;22.478;2023-01-13T07:44:32;4.70;99.90
26743;DHT22;14341;51.256;22.478;2023-01-13T07:47:35;4.70;99.90
26743;DHT22;14341;51.256;22.478;2023-01-13T07:50:40;4.80;99.90
26743;DHT22;14341;51.256;22.478;2023-01-13T07:53:45;4.90;99.90
26743;DHT22;14341;51.256;22.478;2023-01-13T07:56:49;5.00;99.90
26743;DHT22;14341;51.256;22.478;2023-01-13T07:59:52;5.00;99.90
26743;DHT22;14341;51.256;22.478;2023-01-13T08:02:55;5.10;99.90
26743;DHT22;14341;51.256;22.478;2023-01-13T08:06:03;5.10;99.90
26743;DHT22;14341;51.256;22.478;2023-01-13T08:09:07;5.20;99.90
26743;DHT22;14341;51.256;22.478;2023-01-13T08:12:11;5.20;99.90
26743;DHT22;14341;51.256;22.478;2023-01-13T08:15:32;5.30;99.90
26743;DHT22;14341;51.256;22.478;2023-01-13T08:18:36;5.20;99.90
26743;DHT22;14341;51.256;22.478;2023-01-13T08:21:41;5.30;99.90
26743;DHT22;14341;51.256;22.478;2023-01-13T08:24:44;5.30;99.90
26743;DHT22;14341;51.256;22.478;2023-01-13T08:27:48;5.30;99.90
26743;DHT22;14341;51.256;22.478;2023-01-13T08:30:52;5.30;99.90
26743;DHT22;14341;51.256;22.478;2023-01-13T08:33:55;5.30;99.90
26743;DHT22;14341;51.256;22.478;2023-01-13T08:37:00;5.40;99.90
26743;DHT22;14341;51.256;22.478;2023-01-13T08:40:04;5.40;99.90
26743;DHT22;14341;51.256;22.478;2023-01-13T08:43:07;5.40;99.90
26743;DHT22;14341;51.256;22.478;2023-01-13T08:46:10;5.40;99.90
26743;DHT22;14341;51.256;22.478;2023-01-13T08:49:15;5.40;99.90
26743;DHT22;14341;51.256;22.478;2023-01-13T08:52:20;5.40;99.90
26743;DHT22;14341;51.256;22.478;2023-01-13T08:55:23;5.40;99.90
26743;DHT22;14341;51.256;22.478;2023-01-13T08:58:27;5.40;99.90
26743;DHT22;14341;51.256;22.478;2023-01-13T09:01:30;5.50;99.90
26743;DHT22;14341;51.256;22.478;2023-01-13T09:04:35;5.50;99.90
26743;DHT22;14341;51.256;22.478;2023-01-13T09:07:39;5.50;99.90
26743;DHT22;14341;51.256;22.478;2023-01-13T09:10:43;5.60;99.90
26743;DHT22;14341;51.256;22.478;2023-01-13T09:13:46;5.60;99.90
26743;DHT22;14341;51.256;22.478;2023-01-13T09:16:48;5.60;99.90
26743;DHT22;14341;51.256;22.478;2023-01-13T09:19:52;5.70;99.90
26743;DHT22;14341;51.256;22.478;2023-01-13T09:22:57;5.80;99.90
26743;DHT22;14341;51.256;22.478;2023-01-13T09:26:00;5.80;99.90
26743;DHT22;14341;51.256;22.478;2023-01-13T09:29:04;5.90;99.90
26743;DHT22;14341;51.256;22.478;2023-01-13T09:32:10;6.00;99.90
26743;DHT22;14341;51.256;22.478;2023-01-13T09:35:14;6.00;99.90
26743;DHT22;14341;51.256;22.478;2023-01-13T09:38:19;6.10;99.90
26743;DHT22;14341;51.256;22.478;2023-01-13T09:41:25;6.10;99.90
26743;DHT22;14341;51.256;22.478;2023-01-13T09:44:49;6.20;99.90
26743;DHT22;14341;51.256;22.478;2023-01-13T09:48:00;6.30;99.90
26743;DHT22;14341;51.256;22.478;2023-01-13T09:51:11;6.30;99.70
26743;DHT22;14341;51.256;22.478;2023-01-13T09:54:29;6.30;99.90
26743;DHT22;14341;51.256;22.478;2023-01-13T09:57:36;6.40;99.90
26743;DHT22;14341;51.256;22.478;2023-01-13T10:00:45;6.50;99.20
26743;DHT22;14341;51.256;22.478;2023-01-13T10:03:53;6.50;97.70
26743;DHT22;14341;51.256;22.478;2023-01-13T10:07:00;6.50;99.60
26743;DHT22;14341;51.256;22.478;2023-01-13T10:10:14;6.50;99.30
26743;DHT22;14341;51.256;22.478;2023-01-13T10:13:22;6.50;98.30
26743;DHT22;14341;51.256;22.478;2023-01-13T10:16:31;6.40;99.90
26743;DHT22;14341;51.256;22.478;2023-01-13T10:19:45;6.50;99.90
26743;DHT22;14341;51.256;22.478;2023-01-13T10:22:58;6.40;99.90
26743;DHT22;14341;51.256;22.478;2023-01-13T10:26:15;6.50;99.70
26743;DHT22;14341;51.256;22.478;2023-01-13T10:29:26;6.50;99.90
26743;DHT22;14341;51.256;22.478;2023-01-13T10:32:30;6.50;98.80
26743;DHT22;14341;51.256;22.478;2023-01-13T10:35:57;6.50;98.00
26743;DHT22;14341;51.256;22.478;2023-01-13T10:39:07;6.60;98.60
26743;DHT22;14341;51.256;22.478;2023-01-13T10:42:14;6.60;97.10
26743;DHT22;14341;51.256;22.478;2023-01-13T10:45:24;6.60;95.20
26743;DHT22;14341;51.256;22.478;2023-01-13T10:48:50;6.70;95.40
26743;DHT22;14341;51.256;22.478;2023-01-13T10:51:53;6.80;93.10
26743;DHT22;14341;51.256;22.478;2023-01-13T10:54:57;6.80;94.10
26743;DHT22;14341;51.256;22.478;2023-01-13T10:58:15;6.80;92.90
26743;DHT22;14341;51.256;22.478;2023-01-13T11:01:23;6.80;94.40
26743;DHT22;14341;51.256;22.478;2023-01-13T11:04:34;6.80;95.50
26743;DHT22;14341;51.256;22.478;2023-01-13T11:07:39;6.90;93.10
26743;DHT22;14341;51.256;22.478;2023-01-13T11:10:44;6.90;94.20
26743;DHT22;14341;51.256;22.478;2023-01-13T11:13:51;7.00;91.70
26743;DHT22;14341;51.256;22.478;2023-01-13T11:17:32;7.00;88.20
26743;DHT22;14341;51.256;22.478;2023-01-13T11:20:38;7.00;87.30
26743;DHT22;14341;51.256;22.478;2023-01-13T11:23:47;7.10;90.50
26743;DHT22;14341;51.256;22.478;2023-01-13T11:26:55;7.20;89.00
26743;DHT22;14341;51.256;22.478;2023-01-13T11:30:05;7.30;84.00
26743;DHT22;14341;51.256;22.478;2023-01-13T11:33:32;7.30;84.40
26743;DHT22;14341;51.256;22.478;2023-01-13T11:36:39;7.40;77.50
26743;DHT22;14341;51.256;22.478;2023-01-13T11:39:50;7.40;76.80
26743;DHT22;14341;51.256;22.478;2023-01-13T11:43:02;7.40;73.70
26743;DHT22;14341;51.256;22.478;2023-01-13T11:46:09;7.40;72.50
26743;DHT22;14341;51.256;22.478;2023-01-13T11:49:22;7.30;71.30
26743;DHT22;14341;51.256;22.478;2023-01-13T11:52:32;7.30;80.90
26743;DHT22;14341;51.256;22.478;2023-01-13T11:55:49;7.40;82.50
26743;DHT22;14341;51.256;22.478;2023-01-13T11:59:16;7.40;77.40
26743;DHT22;14341;51.256;22.478;2023-01-13T12:02:38;7.30;79.50
26743;DHT22;14341;51.256;22.478;2023-01-13T12:09:31;7.20;80.90
26743;DHT22;14341;51.256;22.478;2023-01-13T12:12:44;7.20;78.90
26743;DHT22;14341;51.256;22.478;2023-01-13T12:16:00;7.20;82.50
26743;DHT22;14341;51.256;22.478;2023-01-13T12:19:19;7.10;83.20
26743;DHT22;14341;51.256;22.478;2023-01-13T12:22:27;7.10;81.60
26743;DHT22;14341;51.256;22.478;2023-01-13T12:25:35;7.10;83.50
26743;DHT22;14341;51.256;22.478;2023-01-13T12:28:44;7.10;82.60
26743;DHT22;14341;51.256;22.478;2023-01-13T12:31:50;7.10;84.50
26743;DHT22;14341;51.256;22.478;2023-01-13T12:35:10;7.10;82.70
26743;DHT22;14341;51.256;22.478;2023-01-13T12:38:25;7.10;88.40
26743;DHT22;14341;51.256;22.478;2023-01-13T12:41:48;7.10;81.30
26743;DHT22;14341;51.256;22.478;2023-01-13T12:45:24;7.10;81.80
26743;DHT22;14341;51.256;22.478;2023-01-13T12:49:04;7.10;91.30
26743;DHT22;14341;51.256;22.478;2023-01-13T12:52:16;7.00;87.70
26743;DHT22;14341;51.256;22.478;2023-01-13T12:55:20;7.00;89.40
26743;DHT22;14341;51.256;22.478;2023-01-13T12:58:29;7.00;91.40
26743;DHT22;14341;51.256;22.478;2023-01-13T13:01:34;7.00;92.20
26743;DHT22;14341;51.256;22.478;2023-01-13T13:04:42;7.00;91.30
26743;DHT22;14341;51.256;22.478;2023-01-13T13:07:50;7.00;89.30
26743;DHT22;14341;51.256;22.478;2023-01-13T13:11:09;7.00;88.70
26743;DHT22;14341;51.256;22.478;2023-01-13T13:14:58;7.00;86.60
26743;DHT22;14341;51.256;22.478;2023-01-13T13:18:20;7.00;84.60
26743;DHT22;14341;51.256;22.478;2023-01-13T13:25:29;7.00;78.90
26743;DHT22;14341;51.256;22.478;2023-01-13T13:28:35;7.00;85.40
26743;DHT22;14341;51.256;22.478;2023-01-13T13:35:38;7.00;86.30
26743;DHT22;14341;51.256;22.478;2023-01-13T13:38:57;6.90;87.10
26743;DHT22;14341;51.256;22.478;2023-01-13T13:42:24;7.00;91.10
26743;DHT22;14341;51.256;22.478;2023-01-13T13:45:52;7.00;90.50
26743;DHT22;14341;51.256;22.478;2023-01-13T13:49:14;7.00;88.20
26743;DHT22;14341;51.256;22.478;2023-01-13T13:52:21;6.90;87.60
26743;DHT22;14341;51.256;22.478;2023-01-13T13:55:27;6.90;88.50
26743;DHT22;14341;51.256;22.478;2023-01-13T13:58:33;6.90;90.80
26743;DHT22;14341;51.256;22.478;2023-01-13T14:01:42;6.90;91.40
26743;DHT22;14341;51.256;22.478;2023-01-13T14:04:46;6.90;88.80
26743;DHT22;14341;51.256;22.478;2023-01-13T14:07:51;6.80;89.30
26743;DHT22;14341;51.256;22.478;2023-01-13T14:11:00;6.80;91.90
26743;DHT22;14341;51.256;22.478;2023-01-13T14:14:10;6.80;91.50
26743;DHT22;14341;51.256;22.478;2023-01-13T14:17:22;6.70;93.30
26743;DHT22;14341;51.256;22.478;2023-01-13T14:20:26;6.70;97.40
26743;DHT22;14341;51.256;22.478;2023-01-13T14:23:33;6.60;99.90
26743;DHT22;14341;51.256;22.478;2023-01-13T14:26:37;6.50;99.90
26743;DHT22;14341;51.256;22.478;2023-01-13T14:29:42;6.50;99.90
26743;DHT22;14341;51.256;22.478;2023-01-13T14:32:46;6.50;99.90
26743;DHT22;14341;51.256;22.478;2023-01-13T14:36:13;6.30;99.90
26743;DHT22;14341;51.256;22.478;2023-01-13T14:39:30;6.30;99.90
26743;DHT22;14341;51.256;22.478;2023-01-13T14:42:34;6.30;99.90
26743;DHT22;14341;51.256;22.478;2023-01-13T14:45:41;6.20;99.90
26743;DHT22;14341;51.256;22.478;2023-01-13T14:48:46;6.20;99.90
26743;DHT22;14341;51.256;22.478;2023-01-13T14:51:50;6.10;99.90
26743;DHT22;14341;51.256;22.478;2023-01-13T14:55:18;6.10;99.90
26743;DHT22;14341;51.256;22.478;2023-01-13T14:58:25;6.10;99.90
26743;DHT22;14341;51.256;22.478;2023-01-13T15:01:33;6.00;99.90
26743;DHT22;14341;51.256;22.478;2023-01-13T15:04:38;6.00;99.90
26743;DHT22;14341;51.256;22.478;2023-01-13T15:07:49;5.90;99.90
26743;DHT22;14341;51.256;22.478;2023-01-13T15:10:54;5.90;99.90
26743;DHT22;14341;51.256;22.478;2023-01-13T15:14:01;5.90;99.90
26743;DHT22;14341;51.256;22.478;2023-01-13T15:17:14;5.80;99.90
26743;DHT22;14341;51.256;22.478;2023-01-13T15:20:20;5.80;99.90
26743;DHT22;14341;51.256;22.478;2023-01-13T15:23:23;5.80;99.90
26743;DHT22;14341;51.256;22.478;2023-01-13T15:26:28;5.80;99.90
26743;DHT22;14341;51.256;22.478;2023-01-13T15:29:32;5.70;99.90
26743;DHT22;14341;51.256;22.478;2023-01-13T15:32:37;5.70;99.90
26743;DHT22;14341;51.256;22.478;2023-01-13T15:35:42;5.70;99.90
26743;DHT22;14341;51.256;22.478;2023-01-13T15:38:47;5.60;99.90
26743;DHT22;14341;51.256;22.478;2023-01-13T15:41:50;5.60;99.90
26743;DHT22;14341;51.256;22.478;2023-01-13T15:45:11;5.60;99.90
26743;DHT22;14341;51.256;22.478;2023-01-13T15:48:34;5.60;99.90
26743;DHT22;14341;51.256;22.478;2023-01-13T15:51:38;5.60;99.90
26743;DHT22;14341;51.256;22.478;2023-01-13T15:54:42;5.50;99.90
26743;DHT22;14341;51.256;22.478;2023-01-13T15:57:48;5.50;99.90
26743;DHT22;14341;51.256;22.478;2023-01-13T16:00:52;5.50;99.90
26743;DHT22;14341;51.256;22.478;2023-01-13T16:03:57;5.50;99.90
26743;DHT22;14341;51.256;22.478;2023-01-13T16:07:00;5.50;99.90
26743;DHT22;14341;51.256;22.478;2023-01-13T16:10:04;5.50;99.90
26743;DHT22;14341;51.256;22.478;2023-01-13T16:13:09;5.50;99.90
26743;DHT22;14341;51.256;22.478;2023-01-13T16:16:17;5.40;99.90
26743;DHT22;14341;51.256;22.478;2023-01-13T16:19:22;5.40;99.90
26743;DHT22;14341;51.256;22.478;2023-01-13T16:22:25;5.40;99.90
26743;DHT22;14341;51.256;22.478;2023-01-13T16:25:29;5.40;99.90
26743;DHT22;14341;51.256;22.478;2023-01-13T16:28:33;5.40;99.90
26743;DHT22;14341;51.256;22.478;2023-01-13T16:31:37;5.40;99.90
26743;DHT22;14341;51.256;22.478;2023-01-13T16:34:42;5.40;99.90
26743;DHT22;14341;51.256;22.478;2023-01-13T16:37:46;5.40;99.90
26743;DHT22;14341;51.256;22.478;2023-01-13T16:40:55;5.40;99.90
26743;DHT22;14341;51.256;22.478;2023-01-13T16:43:59;5.40;99.90
26743;DHT22;14341;51.256;22.478;2023-01-13T16:47:11;5.40;99.90
26743;DHT22;14341;51.256;22.478;2023-01-13T16:50:22;5.40;99.90
26743;DHT22;14341;51.256;22.478;2023-01-13T16:53:29;5.40;99.90
26743;DHT22;14341;51.256;22.478;2023-01-13T16:56:34;5.40;99.90
26743;DHT22;14341;51.256;22.478;2023-01-13T16:59:38;5.40;99.90
26743;DHT22;14341;51.256;22.478;2023-01-13T17:02:42;5.30;99.90
26743;DHT22;14341;51.256;22.478;2023-01-13T17:05:47;5.30;99.90
26743;DHT22;14341;51.256;22.478;2023-01-13T17:08:51;5.40;99.90
26743;DHT22;14341;51.256;22.478;2023-01-13T17:11:55;5.30;99.90
26743;DHT22;14341;51.256;22.478;2023-01-13T17:14:59;5.30;99.90
26743;DHT22;14341;51.256;22.478;2023-01-13T17:18:04;5.30;99.90
26743;DHT22;14341;51.256;22.478;2023-01-13T17:21:10;5.30;99.90
26743;DHT22;14341;51.256;22.478;2023-01-13T17:24:13;5.40;99.90
26743;DHT22;14341;51.256;22.478;2023-01-13T17:27:17;5.40;99.90
26743;DHT22;14341;51.256;22.478;2023-01-13T17:30:22;5.30;99.90
26743;DHT22;14341;51.256;22.478;2023-01-13T17:33:26;5.40;99.90
26743;DHT22;14341;51.256;22.478;2023-01-13T17:36:40;5.40;99.90
26743;DHT22;14341;51.256;22.478;2023-01-13T17:39:45;5.40;99.90
26743;DHT22;14341;51.256;22.478;2023-01-13T17:42:49;5.40;99.90
26743;DHT22;14341;51.256;22.478;2023-01-13T17:45:53;5.40;99.90
26743;DHT22;14341;51.256;22.478;2023-01-13T17:48:57;5.40;99.90
26743;DHT22;14341;51.256;22.478;2023-01-13T17:52:03;5.40;99.90
26743;DHT22;14341;51.256;22.478;2023-01-13T17:55:07;5.40;99.90
26743;DHT22;14341;51.256;22.478;2023-01-13T17:58:10;5.40;99.90
26743;DHT22;14341;51.256;22.478;2023-01-13T18:01:17;5.40;99.90
26743;DHT22;14341;51.256;22.478;2023-01-13T18:04:22;5.40;99.90
26743;DHT22;14341;51.256;22.478;2023-01-13T18:07:29;5.40;99.90
26743;DHT22;14341;51.256;22.478;2023-01-13T18:10:34;5.40;99.90
26743;DHT22;14341;51.256;22.478;2023-01-13T18:13:38;5.40;99.90
26743;DHT22;14341;51.256;22.478;2023-01-13T18:16:43;5.50;99.90
26743;DHT22;14341;51.256;22.478;2023-01-13T18:19:47;5.50;99.90
26743;DHT22;14341;51.256;22.478;2023-01-13T18:23:16;5.50;99.90
26743;DHT22;14341;51.256;22.478;2023-01-13T18:26:37;5.50;99.90
26743;DHT22;14341;51.256;22.478;2023-01-13T18:29:58;5.50;99.90
26743;DHT22;14341;51.256;22.478;2023-01-13T18:33:04;5.50;99.90
26743;DHT22;14341;51.256;22.478;2023-01-13T18:36:08;5.50;99.90
26743;DHT22;14341;51.256;22.478;2023-01-13T18:39:13;5.50;99.90
26743;DHT22;14341;51.256;22.478;2023-01-13T18:42:16;5.40;99.90
26743;DHT22;14341;51.256;22.478;2023-01-13T18:45:37;5.40;99.90
26743;DHT22;14341;51.256;22.478;2023-01-13T18:48:40;5.50;99.90
26743;DHT22;14341;51.256;22.478;2023-01-13T18:51:44;5.50;99.90
26743;DHT22;14341;51.256;22.478;2023-01-13T18:54:49;5.50;99.90
26743;DHT22;14341;51.256;22.478;2023-01-13T18:57:52;5.50;99.90
26743;DHT22;14341;51.256;22.478;2023-01-13T19:00:59;5.50;99.90
26743;DHT22;14341;51.256;22.478;2023-01-13T19:04:04;5.50;99.90
26743;DHT22;14341;51.256;22.478;2023-01-13T19:07:12;5.50;99.90
26743;DHT22;14341;51.256;22.478;2023-01-13T19:10:24;5.50;99.90
26743;DHT22;14341;51.256;22.478;2023-01-13T19:13:34;5.50;99.90
26743;DHT22;14341;51.256;22.478;2023-01-13T19:16:37;5.50;99.90
26743;DHT22;14341;51.256;22.478;2023-01-13T19:19:43;5.50;99.90
26743;DHT22;14341;51.256;22.478;2023-01-13T19:22:46;5.50;99.90
26743;DHT22;14341;51.256;22.478;2023-01-13T19:25:58;5.50;99.90
26743;DHT22;14341;51.256;22.478;2023-01-13T19:29:02;5.50;99.90
26743;DHT22;14341;51.256;22.478;2023-01-13T19:32:06;5.40;99.90
26743;DHT22;14341;51.256;22.478;2023-01-13T19:35:10;5.40;99.90
26743;DHT22;14341;51.256;22.478;2023-01-13T19:38:18;5.40;99.90
26743;DHT22;14341;51.256;22.478;2023-01-13T19:41:23;5.30;99.90
26743;DHT22;14341;51.256;22.478;2023-01-13T19:44:43;5.20;99.90
26743;DHT22;14341;51.256;22.478;2023-01-13T19:48:04;5.10;99.90
26743;DHT22;14341;51.256;22.478;2023-01-13T19:51:09;5.10;99.90
26743;DHT22;14341;51.256;22.478;2023-01-13T19:54:15;5.00;99.90
26743;DHT22;14341;51.256;22.478;2023-01-13T19:57:20;5.00;99.90
26743;DHT22;14341;51.256;22.478;2023-01-13T20:00:23;5.00;99.90
26743;DHT22;14341;51.256;22.478;2023-01-13T20:03:27;5.00;99.90
26743;DHT22;14341;51.256;22.478;2023-01-13T20:06:37;5.00;99.90